Frio Chikuma — 3FWG8 — position and weather

sailwx.info

Track history (hours):
 
Tides and Currents Weather Stations Pressure Air Temp Water Temp Dewpoint Dewpoint Depression Visibility Wind Speed Wind Dir Waves Ship Positions

Frio Chikuma

Last reported at 2017-Apr-16 11:08 UTC. Time now 2017-Apr-26 06:08 UTC.
Position N 40°06' W 009°49'.
Warning: this ship's position is 9 days out of date.

; draft 7.6 m.

Type: Cargo ship. MMSI: 353306000.

Date/timePositionNaut miles runAvg speedWind from/ knotsBaromVisibWave heightAir tempDewpointWater temp
2017-Apr-16 11:08N 40°06' W 009°49'1413.6
2017-Apr-16 10:05N 39°52' W 009°55'113.7
2017-Apr-16 10:00N 39°51' W 009°56'713.5
2017-Apr-16 09:31N 39°45' W 009°58'913.6
2017-Apr-16 08:50N 39°36' W 010°02'513.8
2017-Apr-16 08:29N 39°31' W 010°04'713.8
2017-Apr-16 08:00N 39°26' W 010°09'713.6
2017-Apr-16 07:30N 39°20' W 010°12'713.7
2017-Apr-16 07:00N 39°13' W 010°15'714.0
2017-Apr-16 06:30N 39°07' W 010°18'713.7
2017-Apr-16 06:01N 39°00' W 010°21'714.0
2017-Apr-16 05:30N 38°54' W 010°24'714.1
2017-Apr-16 05:00N 38°47' W 010°27'713.9
2017-Apr-16 04:30N 38°40' W 010°29'713.5
2017-Apr-16 04:00N 38°34' W 010°32'713.3
2017-Apr-16 03:30N 38°28' W 010°35'713.2
2017-Apr-16 03:00N 38°21' W 010°38'713.3
2017-Apr-16 02:30N 38°15' W 010°40'713.2
2017-Apr-16 02:00N 38°09' W 010°43'613.0
2017-Apr-16 01:30N 38°03' W 010°46'713.4
2017-Apr-16 01:00N 37°56' W 010°48'713.7
2017-Apr-16 00:30N 37°50' W 010°51'713.9
2017-Apr-16 00:00N 37°43' W 010°54'714.1
2017-Apr-15 23:30N 37°37' W 010°57'713.7
2017-Apr-15 23:00N 37°30' W 010°60'713.5
2017-Apr-15 22:30N 37°24' W 011°02'813.5
2017-Apr-15 21:54N 37°16' W 011°06'513.6
2017-Apr-15 21:30N 37°11' W 011°08'713.6
2017-Apr-15 21:00N 37°05' W 011°10'713.8
2017-Apr-15 20:31N 36°58' W 011°13'713.9
2017-Apr-15 20:00N 36°52' W 011°16'713.9
2017-Apr-15 19:30N 36°45' W 011°19'713.9
2017-Apr-15 19:00N 36°38' W 011°22'713.6
2017-Apr-15 18:30N 36°32' W 011°24'713.8
2017-Apr-15 18:00N 36°25' W 011°27'714.1
2017-Apr-15 17:30N 36°19' W 011°30'714.1
2017-Apr-15 17:00N 36°12' W 011°33'714.0
2017-Apr-15 16:30N 36°05' W 011°36'714.0
2017-Apr-15 16:00N 35°59' W 011°38'34513.9
2017-Apr-14 15:06N 30°33' W 013°55'4214.5
2017-Apr-14 12:11N 29°53' W 014°11'3014.2
2017-Apr-14 10:05N 29°25' W 014°22'114.2
2017-Apr-14 10:00N 29°24' W 014°23'814.0
2017-Apr-14 09:25N 29°16' W 014°26'613.7
2017-Apr-14 09:00N 29°10' W 014°28'913.8
2017-Apr-14 08:23N 29°02' W 014°31'513.8
2017-Apr-14 08:00N 28°57' W 014°33'813.9
2017-Apr-14 07:26N 28°50' W 014°37'613.7
2017-Apr-14 06:59N 28°44' W 014°39'613.8
2017-Apr-14 06:30N 28°38' W 014°41'713.8
2017-Apr-14 05:59N 28°31' W 014°44'713.9
2017-Apr-14 05:31N 28°25' W 014°47'714.1
2017-Apr-14 05:00N 28°18' W 014°49'713.8
2017-Apr-14 04:30N 28°12' W 014°52'714.0
2017-Apr-14 04:00N 28°05' W 014°55'714.3
2017-Apr-14 03:30N 27°59' W 014°58'714.7
2017-Apr-14 03:00N 27°52' W 015°01'714.9
2017-Apr-14 02:30N 27°45' W 015°05'714.7
2017-Apr-14 02:00N 27°38' W 015°08'814.4
2017-Apr-14 01:26N 27°31' W 015°12'  
Track history (hours):
 
Tides and Currents Weather Stations Pressure Air Temp Water Temp Dewpoint Dewpoint Depression Visibility Wind Speed Wind Dir Waves Ship Positions

Frio Chikuma

Last reported at 2017-Apr-16 11:08 UTC. Time now 2017-Apr-26 06:08 UTC.
Position N 40°06' W 009°49'.
Warning: this ship's position is 9 days out of date.

; draft 7.6 m.

Type: Cargo ship. MMSI: 353306000.

Date/timePositionNaut miles runAvg speedWind from/ knotsBaromVisibWave heightAir tempDewpointWater temp
2017-Apr-16 11:08N 40°06' W 009°49'1413.6
2017-Apr-16 10:05N 39°52' W 009°55'113.7
2017-Apr-16 10:00N 39°51' W 009°56'713.5
2017-Apr-16 09:31N 39°45' W 009°58'913.6
2017-Apr-16 08:50N 39°36' W 010°02'513.8
2017-Apr-16 08:29N 39°31' W 010°04'713.8
2017-Apr-16 08:00N 39°26' W 010°09'713.6
2017-Apr-16 07:30N 39°20' W 010°12'713.7
2017-Apr-16 07:00N 39°13' W 010°15'714.0
2017-Apr-16 06:30N 39°07' W 010°18'713.7
2017-Apr-16 06:01N 39°00' W 010°21'714.0
2017-Apr-16 05:30N 38°54' W 010°24'714.1
2017-Apr-16 05:00N 38°47' W 010°27'713.9
2017-Apr-16 04:30N 38°40' W 010°29'713.5
2017-Apr-16 04:00N 38°34' W 010°32'713.3
2017-Apr-16 03:30N 38°28' W 010°35'713.2
2017-Apr-16 03:00N 38°21' W 010°38'713.3
2017-Apr-16 02:30N 38°15' W 010°40'713.2
2017-Apr-16 02:00N 38°09' W 010°43'613.0
2017-Apr-16 01:30N 38°03' W 010°46'713.4
2017-Apr-16 01:00N 37°56' W 010°48'713.7
2017-Apr-16 00:30N 37°50' W 010°51'713.9
2017-Apr-16 00:00N 37°43' W 010°54'714.1
2017-Apr-15 23:30N 37°37' W 010°57'713.7
2017-Apr-15 23:00N 37°30' W 010°60'713.5
2017-Apr-15 22:30N 37°24' W 011°02'813.5
2017-Apr-15 21:54N 37°16' W 011°06'513.6
2017-Apr-15 21:30N 37°11' W 011°08'713.6
2017-Apr-15 21:00N 37°05' W 011°10'713.8
2017-Apr-15 20:31N 36°58' W 011°13'713.9
2017-Apr-15 20:00N 36°52' W 011°16'713.9
2017-Apr-15 19:30N 36°45' W 011°19'713.9
2017-Apr-15 19:00N 36°38' W 011°22'713.6
2017-Apr-15 18:30N 36°32' W 011°24'713.8
2017-Apr-15 18:00N 36°25' W 011°27'714.1
2017-Apr-15 17:30N 36°19' W 011°30'714.1
2017-Apr-15 17:00N 36°12' W 011°33'714.0
2017-Apr-15 16:30N 36°05' W 011°36'714.0
2017-Apr-15 16:00N 35°59' W 011°38'34513.9
2017-Apr-14 15:06N 30°33' W 013°55'4214.5
2017-Apr-14 12:11N 29°53' W 014°11'3014.2
2017-Apr-14 10:05N 29°25' W 014°22'114.2
2017-Apr-14 10:00N 29°24' W 014°23'814.0
2017-Apr-14 09:25N 29°16' W 014°26'613.7
2017-Apr-14 09:00N 29°10' W 014°28'913.8
2017-Apr-14 08:23N 29°02' W 014°31'513.8
2017-Apr-14 08:00N 28°57' W 014°33'813.9
2017-Apr-14 07:26N 28°50' W 014°37'613.7
2017-Apr-14 06:59N 28°44' W 014°39'613.8
2017-Apr-14 06:30N 28°38' W 014°41'713.8
2017-Apr-14 05:59N 28°31' W 014°44'713.9
2017-Apr-14 05:31N 28°25' W 014°47'714.1
2017-Apr-14 05:00N 28°18' W 014°49'713.8
2017-Apr-14 04:30N 28°12' W 014°52'714.0
2017-Apr-14 04:00N 28°05' W 014°55'714.3
2017-Apr-14 03:30N 27°59' W 014°58'714.7
2017-Apr-14 03:00N 27°52' W 015°01'714.9
2017-Apr-14 02:30N 27°45' W 015°05'714.7
2017-Apr-14 02:00N 27°38' W 015°08'814.4
2017-Apr-14 01:26N 27°31' W 015°12'  

Dump ship's entire track history